Time;durP1;ratioP1;P1;durP2;ratioP2;P2;SDS_P1;SDS_P2;PMS_P1;PMS_P2;Temp;Humidity;BMP_temperature;BMP_pressure;BME280_temperature;BME280_humidity;BME280_pressure;Samples;Min_cycle;Max_cycle;Signal;HPM_P1;HPM_P2
2023/09/24 00:01:43;;;;;;;21.05;9.93;;;;;;;24.53;93.48;100687.63;5032071;28;20124;-77
2023/09/24 00:04:10;;;;;;;22.38;9.77;;;;;;;24.49;93.73;100685.53;5050389;28;20029;-77
2023/09/24 00:06:35;;;;;;;16.13;10.60;;;;;;;24.47;95.07;100677.50;5050222;28;20036;-78
2023/09/24 00:09:01;;;;;;;20.75;10.18;;;;;;;24.47;95.25;100677.50;5050619;28;20030;-77
2023/09/24 00:11:26;;;;;;;20.20;10.80;;;;;;;24.30;95.37;100649.63;5050297;28;20037;-77
2023/09/24 00:13:52;;;;;;;20.02;10.60;;;;;;;24.54;95.67;100678.34;5050415;28;20017;-78
2023/09/24 00:16:19;;;;;;;25.30;12.18;;;;;;;24.62;96.59;100674.50;5050061;28;20028;-77
2023/09/24 00:18:45;;;;;;;26.23;11.20;;;;;;;24.45;97.31;100663.13;5049904;28;20043;-79
2023/09/24 00:21:11;;;;;;;26.35;11.13;;;;;;;24.55;97.73;100682.78;5049837;28;20408;-77
2023/09/24 00:23:37;;;;;;;17.75;10.65;;;;;;;24.49;98.32;100658.03;5050152;28;20037;-77
2023/09/24 00:26:02;;;;;;;19.90;12.80;;;;;;;24.55;98.72;100674.53;5050008;28;20025;-77
2023/09/24 00:28:28;;;;;;;26.90;11.43;;;;;;;24.51;99.19;100662.25;5050401;28;20032;-76
2023/09/24 00:30:55;;;;;;;19.40;12.10;;;;;;;24.47;99.93;100669.25;5050155;28;20033;-78
2023/09/24 00:33:21;;;;;;;29.65;11.30;;;;;;;24.49;100.00;100669.03;5050060;28;20047;-78
2023/09/24 00:35:47;;;;;;;24.60;11.98;;;;;;;24.49;100.00;100658.88;5049786;28;20512;-76
2023/09/24 00:38:13;;;;;;;23.63;12.73;;;;;;;24.44;100.00;100650.41;5049960;28;20580;-77
2023/09/24 00:40:38;;;;;;;25.05;12.82;;;;;;;24.44;100.00;100661.41;5049915;28;20033;-76
2023/09/24 00:43:23;;;;;;;24.20;13.10;;;;;;;24.42;100.00;100658.06;5049755;28;20136;-77
2023/09/24 00:45:49;;;;;;;19.92;12.25;;;;;;;24.42;100.00;100657.19;5049733;28;20044;-76
2023/09/24 00:48:14;;;;;;;30.17;13.75;;;;;;;24.34;100.00;100655.53;5049857;28;20029;-77
2023/09/24 00:50:41;;;;;;;23.23;11.43;;;;;;;24.34;100.00;100655.53;5050532;28;20033;-76
2023/09/24 00:53:07;;;;;;;22.40;11.05;;;;;;;24.36;100.00;100664.41;5014426;28;20049;-77
2023/09/24 00:55:34;;;;;;;16.30;11.02;;;;;;;24.27;100.00;100646.44;5050061;28;20751;-78
2023/09/24 00:58:03;;;;;;;20.88;12.20;;;;;;;24.35;100.00;100662.69;5049737;28;20112;-78
2023/09/24 01:00:31;;;;;;;32.35;12.75;;;;;;;24.34;100.00;100667.34;5050056;28;20032;-78
2023/09/24 01:02:57;;;;;;;23.42;11.07;;;;;;;24.16;100.00;100638.81;5049294;28;20041;-77
2023/09/24 01:05:23;;;;;;;20.58;11.98;;;;;;;24.23;100.00;100653.41;5014222;28;20033;-77
2023/09/24 01:07:49;;;;;;;14.85;10.60;;;;;;;24.34;100.00;100661.84;5049503;28;20028;-77
2023/09/24 01:10:15;;;;;;;18.55;11.48;;;;;;;24.11;100.00;100628.47;5050280;28;20029;-77
2023/09/24 01:12:53;;;;;;;23.42;11.05;;;;;;;24.31;100.00;100655.97;5049563;28;20025;-77
2023/09/24 01:15:18;;;;;;;18.05;10.35;;;;;;;;;;5051729;28;20017;-77
2023/09/24 01:17:44;;;;;;;22.13;11.00;;;;;;;;;;5053214;28;20040;-77
2023/09/24 01:20:13;;;;;;;24.67;12.32;;;;;;;24.30;100.00;100648.75;5053750;28;20047;-77
2023/09/24 01:22:42;;;;;;;21.60;11.55;;;;;;;24.33;100.00;100662.94;5053061;28;20115;-77
2023/09/24 01:25:08;;;;;;;19.58;9.95;;;;;;;24.15;100.00;100623.41;5053375;28;20021;-77
2023/09/24 01:27:36;;;;;;;31.88;11.63;;;;;;;24.31;100.00;100653.22;5053616;28;20535;-78
2023/09/24 01:30:05;;;;;;;17.67;10.02;;;;;;;24.21;100.00;100650.91;5053723;28;20025;-77
2023/09/24 01:32:31;;;;;;;17.98;8.75;;;;;;;24.21;100.00;100644.53;5053335;28;20115;-78
2023/09/24 01:34:57;;;;;;;25.58;10.00;;;;;;;24.18;100.00;100639.47;5053467;28;20117;-77
2023/09/24 01:37:23;;;;;;;19.88;11.02;;;;;;;23.96;100.00;100607.75;5053236;28;20028;-78
2023/09/24 01:39:51;;;;;;;25.05;10.95;;;;;;;24.12;100.00;100640.31;5053317;28;20029;-78
2023/09/24 01:42:16;;;;;;;25.20;10.70;;;;;;;24.26;100.00;100658.47;5053436;28;20049;-78
2023/09/24 01:44:42;;;;;;;20.98;9.65;;;;;;;24.29;100.00;100652.56;5053478;28;20024;-78
2023/09/24 01:47:07;;;;;;;17.35;9.23;;;;;;;24.30;100.00;100655.09;5053794;28;20029;-77
2023/09/24 01:49:33;;;;;;;17.98;8.73;;;;;;;24.28;100.00;100656.34;5053442;28;20029;-78
2023/09/24 01:51:59;;;;;;;23.52;10.50;;;;;;;24.17;100.00;100635.03;5052762;28;20041;-77
2023/09/24 01:54:25;;;;;;;21.27;9.35;;;;;;;24.28;100.00;100661.84;5053280;28;20060;-77
2023/09/24 01:56:50;;;;;;;25.20;9.98;;;;;;;24.15;100.00;100637.16;5052504;28;20119;-77
2023/09/24 01:59:16;;;;;;;25.35;10.20;;;;;;;24.05;100.00;100629.28;5053003;28;20399;-76
2023/09/24 02:01:44;;;;;;;16.42;9.05;;;;;;;24.22;100.00;100663.56;5052998;28;20033;-76
2023/09/24 02:04:10;;;;;;;17.70;8.80;;;;;;;24.15;100.00;100653.63;5001241;28;20033;-77
2023/09/24 02:06:35;;;;;;;18.73;8.27;;;;;;;24.18;100.00;100655.97;5052591;28;20036;-76
2023/09/24 02:09:01;;;;;;;26.95;9.40;;;;;;;24.16;100.00;100658.06;5053183;28;20037;-76
2023/09/24 02:11:30;;;;;;;16.45;8.80;;;;;;;24.03;100.00;100636.06;5052953;28;20469;-75
2023/09/24 02:13:55;;;;;;;20.40;9.13;;;;;;;24.13;100.00;100658.47;5052625;28;20094;-78
2023/09/24 02:16:22;;;;;;;18.00;7.97;;;;;;;24.12;100.00;100656.81;5052950;28;20025;-76
2023/09/24 02:18:48;;;;;;;16.73;9.43;;;;;;;24.08;100.00;100655.50;5052652;28;20086;-79
2023/09/24 02:21:18;;;;;;;15.60;8.98;;;;;;;24.08;100.00;100659.09;5052280;28;20469;-77
2023/09/24 02:23:44;;;;;;;18.63;8.27;;;;;;;23.92;100.00;100642.19;5052738;28;20033;-78
2023/09/24 02:26:09;;;;;;;32.03;11.05;;;;;;;24.12;100.00;100671.41;5051582;28;20033;-78
2023/09/24 02:28:39;;;;;;;17.92;8.93;;;;;;;23.95;100.00;100634.38;5052335;28;20064;-77
2023/09/24 02:31:10;;;;;;;20.70;9.30;;;;;;;24.11;100.00;100661.47;5052653;28;20056;-78
2023/09/24 02:33:36;;;;;;;19.92;8.82;;;;;;;24.14;100.00;100673.94;5052383;28;20037;-77
2023/09/24 02:36:01;;;;;;;15.75;9.30;;;;;;;24.12;100.00;100662.31;5052108;28;20090;-76
2023/09/24 02:38:28;;;;;;;18.55;9.43;;;;;;;24.08;100.00;100659.09;5052270;28;20119;-78
2023/09/24 02:40:56;;;;;;;33.33;11.52;;;;;;;24.09;100.00;100668.19;5051954;28;20021;-77
2023/09/24 02:43:23;;;;;;;19.35;10.00;;;;;;;24.08;100.00;100674.75;5052333;28;20116;-77
2023/09/24 02:45:49;;;;;;;14.43;9.45;;;;;;;24.07;100.00;100668.41;5052093;28;20186;-78
2023/09/24 02:48:17;;;;;;;14.55;9.68;;;;;;;24.01;100.00;100661.00;5052308;28;20597;-78
2023/09/24 02:50:43;;;;;;;19.50;9.75;;;;;;;24.02;100.00;100650.84;5016496;28;20509;-77
2023/09/24 02:53:09;;;;;;;18.27;9.55;;;;;;;24.16;100.00;100669.06;5051943;28;20094;-77
2023/09/24 02:55:36;;;;;;;34.58;12.40;;;;;;;23.78;100.00;100613.88;5051363;28;20528;-77
2023/09/24 02:58:04;;;;;;;16.83;10.07;;;;;;;24.25;100.00;100670.53;5051892;28;20032;-77
2023/09/24 03:00:43;;;;;;;21.95;9.77;;;;;;;24.06;100.00;100644.75;5051585;28;20599;-78
2023/09/24 03:03:15;;;;;;;27.98;11.25;;;;;;;24.19;99.97;100668.63;5051389;28;20032;-77
2023/09/24 03:05:41;;;;;;;23.23;10.45;;;;;;;24.21;99.97;100674.78;5051016;28;20508;-77
2023/09/24 03:08:09;;;;;;;15.55;11.43;;;;;;;24.13;99.65;100652.97;5016241;28;20041;-77
2023/09/24 03:10:35;;;;;;;19.55;9.88;;;;;;;24.24;99.65;100666.09;5051740;28;20029;-78
2023/09/24 03:13:04;;;;;;;17.45;10.43;;;;;;;24.22;99.16;100663.56;5051974;28;20029;-77
2023/09/24 03:15:30;;;;;;;19.85;10.90;;;;;;;24.23;99.02;100667.16;5051962;28;20108;-77
2023/09/24 03:17:55;;;;;;;23.45;10.55;;;;;;;24.23;99.43;100668.00;4999850;28;20198;-76
2023/09/24 03:20:22;;;;;;;23.67;11.07;;;;;;;24.23;99.01;100659.75;5051530;28;20029;-77
2023/09/24 03:22:55;;;;;;;18.52;10.32;;;;;;;24.17;98.86;100660.59;5051530;28;20159;-77
2023/09/24 03:25:22;;;;;;;28.02;11.38;;;;;;;24.18;98.98;100651.31;5051641;28;20037;-78
2023/09/24 03:27:49;;;;;;;28.23;12.23;;;;;;;24.11;99.40;100655.09;5051319;28;20033;-76
2023/09/24 03:30:17;;;;;;;53.33;12.27;;;;;;;24.09;100.00;100665.44;5051311;28;20052;-77
2023/09/24 03:32:52;;;;;;;39.78;12.43;;;;;;;24.12;100.00;100667.81;5051015;28;20044;-77
2023/09/24 03:35:23;;;;;;;23.77;11.18;;;;;;;24.04;100.00;100667.97;5051023;28;20620;-78
2023/09/24 03:37:50;;;;;;;22.23;11.38;;;;;;;24.12;100.00;100673.31;5031006;28;20048;-78
2023/09/24 03:40:20;;;;;;;30.88;13.10;;;;;;;24.11;100.00;100675.19;5051122;28;20024;-78
2023/09/24 03:42:47;;;;;;;21.33;10.98;;;;;;;24.11;100.00;100682.59;5051145;28;20059;-77
2023/09/24 03:45:14;;;;;;;27.55;11.95;;;;;;;24.17;100.00;100681.75;5051415;28;20025;-77
2023/09/24 03:47:40;;;;;;;23.80;11.73;;;;;;;24.07;100.00;100678.53;5057653;28;20040;-78
2023/09/24 03:50:17;;;;;;;35.25;11.75;;;;;;;24.10;100.00;100687.22;5076205;28;20017;-81
2023/09/24 03:52:52;;;;;;;21.50;12.80;;;;;;;24.12;100.00;100687.03;5076486;28;20040;-77
2023/09/24 03:55:21;;;;;;;14.45;9.52;;;;;;;24.11;100.00;100699.94;5059538;28;20021;-78
2023/09/24 03:57:47;;;;;;;32.88;11.00;;;;;;;23.92;100.00;100661.41;5027113;28;20041;-77
2023/09/24 04:00:25;;;;;;;21.50;10.35;;;;;;;24.07;100.00;100697.78;5051335;28;20029;-77
2023/09/24 04:02:51;;;;;;;26.63;10.10;;;;;;;24.08;100.00;100694.81;5050417;28;20040;-76
2023/09/24 04:05:19;;;;;;;28.02;12.80;;;;;;;24.11;100.00;100696.34;5050720;28;20031;-76
2023/09/24 04:07:51;;;;;;;32.22;13.18;;;;;;;23.93;100.00;100663.13;5050813;28;20484;-77
2023/09/24 04:10:21;;;;;;;28.55;11.73;;;;;;;24.02;100.00;100689.31;5051467;28;20028;-77
2023/09/24 04:12:50;;;;;;;76.68;39.78;;;;;;;24.09;100.00;100695.69;5050888;28;20024;-77
2023/09/24 04:15:18;;;;;;;34.55;15.13;;;;;;;24.12;100.00;100698.03;5050950;28;20489;-77
2023/09/24 04:17:46;;;;;;;37.30;12.18;;;;;;;23.97;100.00;100675.38;5050237;28;20095;-77
2023/09/24 04:20:12;;;;;;;27.05;11.23;;;;;;;24.15;100.00;100701.22;5031005;28;20615;-76
2023/09/24 04:22:38;;;;;;;17.08;11.55;;;;;;;24.03;99.90;100669.91;5049969;28;20031;-77
2023/09/24 04:25:03;;;;;;;25.98;12.13;;;;;;;24.16;99.69;100696.53;5049586;28;20033;-78
2023/09/24 04:27:29;;;;;;;19.52;11.43;;;;;;;24.17;99.34;100699.09;5049877;28;20033;-78
2023/09/24 04:29:55;;;;;;;22.10;10.45;;;;;;;24.17;99.39;100692.75;5014771;28;20091;-77
2023/09/24 04:32:20;;;;;;;19.38;11.02;;;;;;;23.94;99.13;100664.81;5050482;28;20477;-77
2023/09/24 04:34:46;;;;;;;26.25;12.68;;;;;;;24.11;99.22;100697.19;5050011;28;20091;-78
2023/09/24 04:37:13;;;;;;;13.50;9.45;;;;;;;24.03;99.50;100691.88;5050401;28;20082;-80
2023/09/24 04:39:38;;;;;;;16.48;10.55;;;;;;;24.08;99.86;100697.56;5049867;28;20033;-80
2023/09/24 04:42:06;;;;;;;18.08;10.30;;;;;;;24.10;99.86;100705.59;5050168;28;20049;-80
2023/09/24 04:44:31;;;;;;;20.00;10.60;;;;;;;24.08;100.00;100710.47;5050261;28;20025;-80
2023/09/24 04:46:57;;;;;;;20.63;10.43;;;;;;;23.98;100.00;100685.28;5049978;28;20036;-80
2023/09/24 04:49:22;;;;;;;20.33;9.82;;;;;;;23.97;100.00;100678.97;5049688;28;20025;-81
2023/09/24 04:51:50;;;;;;;20.42;10.23;;;;;;;24.12;99.63;100711.78;5049663;28;20029;-82
2023/09/24 04:54:16;;;;;;;30.40;9.85;;;;;;;24.12;99.34;100711.78;5049726;28;20378;-81
2023/09/24 04:56:41;;;;;;;21.10;9.40;;;;;;;24.04;99.45;100692.69;5049805;28;20052;-80
2023/09/24 04:59:06;;;;;;;22.45;9.75;;;;;;;24.04;99.26;100711.94;5049490;28;20039;-77
2023/09/24 05:01:32;;;;;;;44.22;11.85;;;;;;;24.14;98.80;100720.66;5048566;28;20032;-77
2023/09/24 05:03:57;;;;;;;23.50;10.40;;;;;;;24.15;98.29;100720.47;5049876;28;20029;-78
2023/09/24 05:06:24;;;;;;;28.10;10.20;;;;;;;24.22;97.88;100725.94;5050230;28;20021;-76
2023/09/24 05:08:49;;;;;;;16.23;9.07;;;;;;;24.25;97.30;100720.84;5048723;28;20068;-78
2023/09/24 05:11:15;;;;;;;22.02;8.73;;;;;;;24.26;96.87;100718.97;5049464;28;20182;-78
2023/09/24 05:13:40;;;;;;;20.05;8.95;;;;;;;24.14;96.47;100699.50;5049634;28;20044;-77
2023/09/24 05:16:08;;;;;;;14.32;7.93;;;;;;;24.21;96.55;100705.88;5049549;28;20028;-77
2023/09/24 05:18:33;;;;;;;21.42;8.65;;;;;;;24.23;97.21;100711.13;5049611;28;20116;-78
2023/09/24 05:20:59;;;;;;;17.83;8.85;;;;;;;24.26;96.63;100713.47;5049598;28;20024;-78
2023/09/24 05:23:25;;;;;;;30.00;9.18;;;;;;;24.27;96.10;100726.16;5049745;28;20028;-78
2023/09/24 05:25:53;;;;;;;26.25;8.77;;;;;;;24.27;95.89;100720.66;5049216;28;20029;-78
2023/09/24 05:28:19;;;;;;;22.13;9.10;;;;;;;24.38;95.14;100728.25;5049519;28;20033;-77
2023/09/24 05:30:54;;;;;;;20.35;8.20;;;;;;;24.30;95.22;100717.50;5049082;28;20573;-79
2023/09/24 05:33:20;;;;;;;19.02;9.07;;;;;;;24.41;95.15;100733.34;5049670;28;20086;-77
2023/09/24 05:35:51;;;;;;;28.75;8.73;;;;;;;24.10;94.83;100676.22;5049778;28;20026;-79
2023/09/24 05:38:17;;;;;;;13.80;8.50;;;;;;;24.40;94.13;100725.31;5049859;28;20032;-79
2023/09/24 05:40:43;;;;;;;20.90;8.50;;;;;;;24.48;94.19;100739.69;5049311;28;20720;-79
2023/09/24 05:43:09;;;;;;;19.92;8.93;;;;;;;24.42;93.73;100721.28;5048842;28;20061;-78
2023/09/24 05:45:34;;;;;;;36.00;11.55;;;;;;;24.56;93.38;100741.34;5048897;28;20686;-77
2023/09/24 05:48:00;;;;;;;20.92;8.93;;;;;;;24.53;93.06;100748.13;5049078;28;20044;-79
2023/09/24 05:50:25;;;;;;;22.60;8.93;;;;;;;24.59;93.03;100758.28;5049200;28;20021;-81
2023/09/24 05:52:51;;;;;;;17.65;8.68;;;;;;;24.63;92.16;100759.56;5049500;28;20044;-80
2023/09/24 05:55:16;;;;;;;18.20;8.25;;;;;;;24.73;91.38;100762.72;5049780;28;20033;-79
2023/09/24 05:57:41;;;;;;;20.85;9.10;;;;;;;24.74;90.72;100766.31;5049453;28;20040;-80
2023/09/24 06:00:08;;;;;;;10.65;7.10;;;;;;;24.74;90.29;100761.66;5049808;28;20047;-80
2023/09/24 06:02:34;;;;;;;18.50;7.82;;;;;;;24.78;89.57;100765.69;5053296;28;20025;-80
2023/09/24 06:04:59;;;;;;;10.95;6.85;;;;;;;24.79;90.07;100775.63;5052755;28;20040;-80
2023/09/24 06:07:28;;;;;;;18.20;7.57;;;;;;;24.74;90.04;100783.66;5053501;28;20031;-78
2023/09/24 06:09:55;;;;;;;14.98;6.72;;;;;;;24.67;90.02;100755.34;5053007;28;20041;-79
2023/09/24 06:12:21;;;;;;;23.15;7.90;;;;;;;24.73;89.06;100748.97;5052653;28;20056;-77
2023/09/24 06:14:47;;;;;;;19.65;7.00;;;;;;;24.83;89.17;100768.66;5052144;28;20029;-79
2023/09/24 06:17:13;;;;;;;17.30;6.93;;;;;;;24.98;89.54;100781.34;5052856;28;20074;-79
2023/09/24 06:19:38;;;;;;;12.02;6.47;;;;;;;25.02;87.90;100779.84;5052282;28;20469;-80
2023/09/24 06:22:03;;;;;;;13.88;7.25;;;;;;;25.00;86.81;100779.22;5052337;28;20040;-79
2023/09/24 06:24:29;;;;;;;17.08;6.45;;;;;;;25.05;86.81;100774.75;5052178;28;20119;-81
2023/09/24 06:26:55;;;;;;;17.55;6.47;;;;;;;24.87;86.35;100745.16;5052308;28;20029;-79
2023/09/24 06:29:21;;;;;;;13.52;6.40;;;;;;;25.11;85.77;100786.81;5051928;28;20025;-80
2023/09/24 06:31:47;;;;;;;25.17;6.88;;;;;;;25.18;86.06;100785.75;5052200;28;20048;-80
2023/09/24 06:34:12;;;;;;;13.73;6.32;;;;;;;25.03;85.16;100787.91;5052422;28;20119;-80
2023/09/24 06:36:38;;;;;;;27.42;8.20;;;;;;;25.09;85.84;100777.94;5052377;28;20109;-80
2023/09/24 06:39:08;;;;;;;23.38;7.60;;;;;;;25.08;86.06;100793.59;5052179;28;20477;-78
2023/09/24 06:41:34;;;;;;;14.40;7.28;;;;;;;24.92;85.66;100755.53;5048934;28;20128;-77
2023/09/24 06:43:59;;;;;;;18.83;6.45;;;;;;;25.15;85.11;100788.91;5051862;28;20027;-79
2023/09/24 06:46:25;;;;;;;14.30;6.70;;;;;;;25.18;84.53;100782.13;5051844;28;20500;-79
2023/09/24 06:48:51;;;;;;;12.40;6.35;;;;;;;25.17;84.47;100794.19;5051482;28;20033;-79
2023/09/24 06:51:17;;;;;;;26.80;7.05;;;;;;;25.17;84.55;100788.69;5051554;28;20032;-78
2023/09/24 06:53:42;;;;;;;21.77;6.38;;;;;;;25.20;84.13;100793.75;5051887;28;20029;-78
2023/09/24 06:56:08;;;;;;;11.65;5.15;;;;;;;24.95;83.78;100737.75;5052342;28;20052;-79
2023/09/24 06:58:35;;;;;;;15.75;5.63;;;;;;;25.26;83.98;100793.75;5052131;28;20068;-79
2023/09/24 07:01:03;;;;;;;11.98;4.85;;;;;;;24.99;83.23;100747.25;5051617;28;20036;-79
2023/09/24 07:03:29;;;;;;;12.57;6.03;;;;;;;25.34;83.00;100784.41;5033495;28;20029;-79
2023/09/24 07:05:54;;;;;;;18.83;6.22;;;;;;;25.31;82.98;100771.94;5051488;28;20036;-79
2023/09/24 07:08:20;;;;;;;19.35;6.47;;;;;;;25.19;82.40;100759.91;5051374;28;20688;-79
2023/09/24 07:10:50;;;;;;;26.65;5.28;;;;;;;25.46;82.55;100799.22;5051431;28;20108;-79
2023/09/24 07:13:15;;;;;;;14.35;5.30;;;;;;;25.49;82.33;100796.06;5051697;28;20021;-79
2023/09/24 07:15:41;;;;;;;19.55;5.32;;;;;;;25.45;81.80;100789.25;5051288;28;20035;-77
2023/09/24 07:18:06;;;;;;;9.50;4.35;;;;;;;25.45;82.15;100797.50;5051313;28;20031;-78
2023/09/24 07:20:32;;;;;;;14.30;4.95;;;;;;;25.48;82.18;100797.06;5051614;28;20051;-78
2023/09/24 07:22:58;;;;;;;18.50;5.47;;;;;;;25.66;81.70;100805.50;5051575;28;20020;-79
2023/09/24 07:25:23;;;;;;;11.82;4.38;;;;;;;25.61;81.35;100786.03;5050959;28;20029;-79
2023/09/24 07:27:49;;;;;;;14.32;5.22;;;;;;;25.84;80.46;100815.81;5051029;28;20037;-78
2023/09/24 07:30:15;;;;;;;12.27;5.15;;;;;;;25.82;80.07;100791.22;5050629;28;20036;-79
2023/09/24 07:32:41;;;;;;;10.93;4.30;;;;;;;25.97;78.92;100813.81;5050918;28;20439;-78
2023/09/24 07:35:08;;;;;;;19.10;5.85;;;;;;;25.84;78.78;100791.84;5051165;28;20040;-79
2023/09/24 07:37:33;;;;;;;11.50;5.18;;;;;;;25.98;78.24;100810.00;5050879;28;20061;-79
2023/09/24 07:39:59;;;;;;;13.18;5.50;;;;;;;25.89;78.07;100794.81;5050066;28;20056;-78
2023/09/24 07:42:24;;;;;;;17.10;5.15;;;;;;;25.98;77.59;100787.97;5050888;28;20052;-78
2023/09/24 07:44:50;;;;;;;29.58;8.52;;;;;;;26.16;77.20;100800.16;5051125;28;20472;-78
2023/09/24 07:47:15;;;;;;;14.15;4.32;;;;;;;26.23;76.54;100798.22;5050833;28;20090;-78
2023/09/24 07:49:43;;;;;;;9.50;5.03;;;;;;;26.23;75.93;100800.97;5050427;28;20029;-77
2023/09/24 07:52:08;;;;;;;17.80;5.05;;;;;;;26.28;76.06;100803.91;5050377;28;20045;-77
2023/09/24 07:54:33;;;;;;;10.82;4.25;;;;;;;26.03;75.86;100776.25;5050726;28;20028;-80
2023/09/24 07:56:59;;;;;;;10.43;4.18;;;;;;;26.29;75.98;100805.59;5050566;28;20040;-80
2023/09/24 07:59:24;;;;;;;17.25;5.55;;;;;;;26.23;76.41;100798.22;5050873;28;20032;-78
2023/09/24 08:01:50;;;;;;;12.90;4.53;;;;;;;26.17;75.71;100788.94;5050629;28;20036;-78
2023/09/24 08:04:15;;;;;;;21.85;5.22;;;;;;;26.11;75.46;100764.13;5050192;28;20405;-78
2023/09/24 08:06:42;;;;;;;17.65;5.63;;;;;;;26.25;75.65;100782.28;5050727;28;20106;-79
2023/09/24 08:09:08;;;;;;;13.30;5.30;;;;;;;26.47;75.49;100803.78;5050402;28;20029;-79
2023/09/24 08:11:33;;;;;;;20.60;5.75;;;;;;;26.49;73.73;100815.41;5050657;28;20554;-79
2023/09/24 08:13:59;;;;;;;15.23;5.43;;;;;;;26.42;74.30;100819.31;5050188;28;20025;-79
2023/09/24 08:16:24;;;;;;;21.33;8.45;;;;;;;26.37;75.05;100816.34;5050673;28;20040;-78
2023/09/24 08:18:50;;;;;;;9.93;5.30;;;;;;;26.42;75.25;100822.06;5050217;28;20115;-80
2023/09/24 08:21:15;;;;;;;13.30;5.28;;;;;;;26.50;74.35;100811.59;5050304;28;20033;-78
2023/09/24 08:23:42;;;;;;;17.85;5.57;;;;;;;26.25;74.22;100787.81;5049783;28;20499;-77
2023/09/24 08:26:07;;;;;;;13.88;5.65;;;;;;;26.25;73.98;100804.34;5032419;28;20033;-77
2023/09/24 08:28:33;;;;;;;10.15;5.22;;;;;;;26.35;73.88;100805.56;5050327;28;20039;-78
2023/09/24 08:30:58;;;;;;;11.05;5.45;;;;;;;26.49;73.72;100811.81;5049879;28;20082;-78
2023/09/24 08:33:25;;;;;;;22.15;5.85;;;;;;;26.42;73.64;100794.47;5050013;28;20049;-78
2023/09/24 08:35:50;;;;;;;9.10;5.53;;;;;;;26.42;73.41;100822.88;5049716;28;20617;-78
2023/09/24 08:38:16;;;;;;;10.13;4.32;;;;;;;26.34;73.46;100787.31;5049934;28;20029;-79
2023/09/24 08:40:42;;;;;;;10.18;5.05;;;;;;;26.30;74.12;100790.72;5049817;28;20017;-79
2023/09/24 08:43:16;;;;;;;17.33;4.75;;;;;;;26.36;74.77;100811.94;5049413;28;20041;-78
2023/09/24 08:45:42;;;;;;;14.07;4.72;;;;;;;26.41;75.04;100823.13;5049883;28;20127;-78
2023/09/24 08:48:09;;;;;;;24.05;6.43;;;;;;;26.56;75.17;100814.53;5049790;28;20212;-78
2023/09/24 08:50:38;;;;;;;14.63;6.18;;;;;;;26.64;73.88;100815.06;5049820;28;20024;-78
2023/09/24 08:53:16;;;;;;;14.55;6.10;;;;;;;26.66;72.44;100815.72;5049127;28;20477;-77
2023/09/24 08:55:46;;;;;;;12.68;4.80;;;;;;;26.49;72.42;100800.78;5049398;28;20029;-79
2023/09/24 08:58:12;;;;;;;7.07;4.55;;;;;;;26.60;71.49;100813.00;5049345;28;20032;-78
2023/09/24 09:00:38;;;;;;;10.45;4.55;;;;;;;26.60;72.33;100813.84;5049476;28;20025;-78
2023/09/24 09:03:04;;;;;;;15.52;5.15;;;;;;;26.55;72.29;100805.41;5049043;28;20025;-79
2023/09/24 09:05:35;;;;;;;10.88;4.18;;;;;;;26.65;72.80;100808.50;5049199;28;20063;-78
2023/09/24 09:08:02;;;;;;;18.40;4.38;;;;;;;26.67;72.14;100806.34;5049246;28;20037;-79
2023/09/24 09:10:32;;;;;;;6.82;3.78;;;;;;;26.68;71.79;100793.41;5049012;28;20033;-79
2023/09/24 09:13:11;;;;;;;9.23;4.45;;;;;;;26.66;71.34;100790.03;5048963;28;20491;-79
2023/09/24 09:15:39;;;;;;;81.07;11.15;;;;;;;26.74;71.63;100798.88;5049291;28;20128;-79
2023/09/24 09:18:05;;;;;;;22.70;5.97;;;;;;;26.72;71.28;100791.88;5030486;28;20500;-80
2023/09/24 09:20:45;;;;;;;14.45;5.25;;;;;;;26.64;72.46;100804.03;5049244;28;20037;-78
2023/09/24 09:23:13;;;;;;;16.40;5.00;;;;;;;26.56;72.45;100804.34;5049216;28;20032;-79
2023/09/24 09:25:52;;;;;;;9.50;5.07;;;;;;;26.53;72.68;100807.53;5048895;28;20778;-79
2023/09/24 09:28:19;;;;;;;11.05;4.45;;;;;;;26.54;72.85;100806.47;5013919;28;20072;-78
2023/09/24 09:30:56;;;;;;;17.67;4.40;;;;;;;26.50;72.50;100772.13;5048991;28;20028;-79
2023/09/24 09:33:36;;;;;;;14.20;4.40;;;;;;;26.36;72.08;100756.75;5048769;28;20082;-79
2023/09/24 09:36:03;;;;;;;9.93;5.10;;;;;;;26.65;71.29;100804.88;5050802;28;20039;-79
2023/09/24 09:38:29;;;;;;;11.70;5.05;;;;;;;26.52;71.31;100789.28;5034628;28;20075;-78
2023/09/24 09:40:57;;;;;;;15.93;6.32;;;;;;;26.71;71.79;100810.34;5052947;28;20029;-79
2023/09/24 09:43:29;;;;;;;11.63;4.88;;;;;;;26.78;72.04;100805.63;5053046;28;20072;-77
2023/09/24 09:45:57;;;;;;;13.68;4.70;;;;;;;26.79;71.02;100806.44;5052478;28;20118;-79
2023/09/24 09:48:32;;;;;;;11.27;5.50;;;;;;;26.80;70.23;100786.94;5052856;28;20393;-78
2023/09/24 09:51:02;;;;;;;13.63;4.55;;;;;;;26.67;70.66;100770.47;5052578;28;20408;-79
2023/09/24 09:53:31;;;;;;;8.75;5.28;;;;;;;26.90;70.41;100790.06;5000803;28;20071;-78
2023/09/24 09:56:00;;;;;;;9.73;5.55;;;;;;;27.01;71.21;100803.09;5052775;28;20099;-80
2023/09/24 09:58:26;;;;;;;22.98;5.25;;;;;;;27.03;70.74;100792.66;5052762;28;20025;-79
2023/09/24 10:00:54;;;;;;;9.75;4.38;;;;;;;26.80;70.55;100764.03;5053002;28;20025;-78
2023/09/24 10:03:21;;;;;;;8.50;5.57;;;;;;;26.84;70.32;100802.00;5052349;28;20108;-79
2023/09/24 10:05:49;;;;;;;16.33;4.90;;;;;;;26.57;70.68;100770.16;5017838;28;20409;-77
2023/09/24 10:08:43;;;;;;;10.60;4.00;;;;;;;26.76;71.15;100804.16;5052919;28;20113;-78
2023/09/24 10:11:11;;;;;;;7.53;4.88;;;;;;;26.86;70.25;100802.59;5052220;28;20021;-77
2023/09/24 10:13:45;;;;;;;11.63;4.68;;;;;;;27.03;70.45;100797.34;5052843;28;20025;-78
2023/09/24 10:16:25;;;;;;;11.82;5.00;;;;;;;27.11;69.21;100793.44;5052365;28;20052;-79
2023/09/24 10:18:56;;;;;;;16.63;4.90;;;;;;;27.12;69.26;100795.13;5051572;28;20440;-78
2023/09/24 10:21:31;;;;;;;11.77;4.32;;;;;;;27.23;69.19;100799.88;5051810;28;20039;-77
2023/09/24 10:24:20;;;;;;;6.07;3.70;;;;;;;27.22;69.57;100801.81;5052041;28;20044;-79
2023/09/24 10:27:03;;;;;;;7.95;4.25;;;;;;;27.18;69.10;100799.75;5051595;28;20474;-80
2023/09/24 10:29:55;;;;;;;17.23;4.32;;;;;;;27.21;68.68;100793.75;5052109;28;20025;-78
2023/09/24 10:32:22;;;;;;;10.45;3.75;;;;;;;27.21;68.47;100800.13;5051937;28;20060;-78
2023/09/24 10:34:51;;;;;;;7.85;4.57;;;;;;;27.15;69.21;100800.19;5052629;28;20064;-79
2023/09/24 10:37:18;;;;;;;12.70;4.90;;;;;;;27.12;67.83;100784.09;5052261;28;20013;-81
2023/09/24 10:40:04;;;;;;;8.85;4.20;;;;;;;27.17;68.04;100784.25;5051760;28;20116;-79
2023/09/24 10:42:31;;;;;;;8.75;4.45;;;;;;;27.20;68.10;100779.09;5051726;28;20466;-78
2023/09/24 10:45:14;;;;;;;13.10;5.03;;;;;;;27.41;68.51;100781.41;5051645;28;20043;-79
2023/09/24 10:47:44;;;;;;;34.40;15.73;;;;;;;27.35;68.25;100784.25;5052522;28;20045;-78
2023/09/24 10:50:20;;;;;;;9.60;3.90;;;;;;;27.45;67.62;100790.09;5053088;28;20032;-78
2023/09/24 10:52:55;;;;;;;15.82;4.88;;;;;;;27.33;67.31;100801.06;5075211;28;20055;-79
2023/09/24 10:55:27;;;;;;;17.88;4.85;;;;;;;27.29;68.06;100798.97;5077977;28;20033;-79
2023/09/24 10:57:55;;;;;;;11.48;4.00;;;;;;;27.20;67.49;100790.16;5060286;28;20032;-79
2023/09/24 11:00:22;;;;;;;9.80;4.78;;;;;;;27.17;67.75;100787.84;5071987;28;20580;-79
2023/09/24 11:03:07;;;;;;;11.45;3.67;;;;;;;27.20;66.97;100781.00;5053360;28;20063;-79
2023/09/24 11:05:42;;;;;;;14.10;4.05;;;;;;;27.24;67.66;100780.34;5019508;28;20460;-78
2023/09/24 11:08:08;;;;;;;9.35;3.72;;;;;;;27.25;67.16;100772.88;5054410;28;20112;-78
2023/09/24 11:10:34;;;;;;;12.90;4.18;;;;;;;27.20;66.81;100783.78;5054177;28;20032;-78
2023/09/24 11:13:03;;;;;;;10.88;4.00;;;;;;;27.09;66.31;100751.41;5052701;28;20039;-80
2023/09/24 11:15:33;;;;;;;9.73;4.40;;;;;;;27.35;67.20;100784.25;5051678;28;20025;-79
2023/09/24 11:17:59;;;;;;;13.82;4.93;;;;;;;27.48;66.54;100773.91;5050934;28;20117;-78